Time;durP1;ratioP1;P1;durP2;ratioP2;P2;SDS_P1;SDS_P2;PMS_P1;PMS_P2;Temp;Humidity;BMP_temperature;BMP_pressure;BME280_temperature;BME280_humidity;BME280_pressure;Samples;Min_cycle;Max_cycle;Signal;HPM_P1;HPM_P2
2023/01/07 00:01:02;;;;;;;26.30;16.33;;;8.80;99.90;;;;;;5075264;28;20058;-63
2023/01/07 00:03:29;;;;;;;29.85;18.08;;;8.80;99.90;;;;;;5075358;28;20491;-66
2023/01/07 00:05:59;;;;;;;24.17;15.80;;;8.80;99.90;;;;;;5092772;28;20450;-66
2023/01/07 00:08:29;;;;;;;28.23;17.58;;;8.90;99.90;;;;;;5092871;28;20090;-67
2023/01/07 00:10:56;;;;;;;;;;;8.90;99.90;;;;;;5075745;28;20048;-66
2023/01/07 00:13:23;;;;;;;27.42;17.83;;;9.00;99.90;;;;;;5092708;28;19923;-67
2023/01/07 00:15:50;;;;;;;28.63;18.20;;;9.00;99.90;;;;;;5074931;28;20044;-66
2023/01/07 00:18:17;;;;;;;30.20;19.30;;;9.00;99.90;;;;;;5074559;28;20048;-67
2023/01/07 00:20:44;;;;;;;28.35;18.15;;;9.10;99.90;;;;;;5074349;28;20055;-67
2023/01/07 00:23:11;;;;;;;32.60;19.75;;;9.10;99.90;;;;;;5074870;28;20404;-66
2023/01/07 00:25:39;;;;;;;27.75;18.58;;;9.10;99.90;;;;;;5075005;28;20044;-66
2023/01/07 00:28:06;;;;;;;35.17;20.92;;;9.20;99.90;;;;;;5090314;28;20381;-67
2023/01/07 00:30:33;;;;;;;30.55;17.38;;;9.20;99.90;;;;;;5074938;28;20112;-67
2023/01/07 00:33:03;;;;;;;28.00;18.83;;;9.20;99.90;;;;;;5074576;28;20069;-67
2023/01/07 00:35:31;;;;;;;;;;;9.40;99.90;;;;;;5073622;28;20094;-67
2023/01/07 00:37:58;;;;;;;28.88;18.63;;;9.30;99.90;;;;;;5074625;28;20322;-67
2023/01/07 00:40:25;;;;;;;27.63;17.70;;;9.40;99.90;;;;;;5089747;28;20047;-67
2023/01/07 00:43:00;;;;;;;27.27;17.67;;;9.50;99.90;;;;;;5074554;28;20059;-67
2023/01/07 00:45:29;;;;;;;31.85;19.45;;;9.50;99.90;;;;;;5074663;28;20047;-66
2023/01/07 00:47:57;;;;;;;28.92;17.98;;;9.50;99.90;;;;;;5073673;28;20080;-65
2023/01/07 00:50:25;;;;;;;28.92;17.75;;;9.60;99.90;;;;;;5074431;28;20106;-66
2023/01/07 00:52:53;;;;;;;28.88;18.17;;;9.60;99.90;;;;;;5074164;28;20052;-65
2023/01/07 00:55:21;;;;;;;25.98;16.85;;;9.60;99.90;;;;;;5073765;28;20036;-62
2023/01/07 00:57:48;;;;;;;28.55;16.75;;;9.70;99.90;;;;;;5073727;28;20458;-63
2023/01/07 01:00:18;;;;;;;26.73;16.67;;;9.70;99.90;;;;;;5092116;28;20040;-62
2023/01/07 01:02:46;;;;;;;25.88;16.60;;;9.70;99.90;;;;;;5073673;28;20470;-62
2023/01/07 01:05:14;;;;;;;23.33;15.95;;;9.70;99.90;;;;;;5074051;28;20040;-62
2023/01/07 01:07:42;;;;;;;26.50;16.15;;;9.80;99.90;;;;;;5073850;28;20056;-62
2023/01/07 01:10:11;;;;;;;23.30;15.88;;;9.80;99.90;;;;;;5073519;28;20054;-63
2023/01/07 01:12:39;;;;;;;21.52;14.25;;;9.80;99.90;;;;;;5074315;28;20052;-64
2023/01/07 01:15:08;;;;;;;19.77;14.25;;;9.80;99.90;;;;;;5071853;28;20113;-64
2023/01/07 01:17:36;;;;;;;21.25;14.20;;;9.90;99.90;;;;;;5072958;28;20056;-63
2023/01/07 01:20:04;;;;;;;22.83;14.48;;;9.90;99.90;;;;;;5074120;28;20055;-63
2023/01/07 01:22:31;;;;;;;21.85;14.73;;;9.90;99.90;;;;;;5089251;28;20506;-63
2023/01/07 01:24:58;;;;;;;21.27;14.77;;;10.00;99.90;;;;;;5092046;28;20052;-63
2023/01/07 01:27:25;;;;;;;21.30;14.55;;;10.00;99.90;;;;;;5091834;28;20055;-63
2023/01/07 01:29:52;;;;;;;23.42;15.60;;;10.00;99.90;;;;;;5073075;28;20570;-62
2023/01/07 01:32:19;;;;;;;20.08;13.95;;;10.00;99.90;;;;;;5092049;28;20147;-63
2023/01/07 01:34:47;;;;;;;20.77;15.20;;;10.00;99.90;;;;;;5091764;28;20044;-64
2023/01/07 01:37:14;;;;;;;24.30;15.60;;;10.10;99.90;;;;;;5072996;28;20511;-64
2023/01/07 01:39:41;;;;;;;20.25;14.70;;;10.10;99.90;;;;;;5071628;28;20052;-63
2023/01/07 01:42:11;;;;;;;22.08;14.60;;;10.10;99.90;;;;;;5073910;28;20464;-63
2023/01/07 01:44:43;;;;;;;19.13;13.73;;;10.10;99.90;;;;;;5071504;28;20048;-63
2023/01/07 01:47:19;;;;;;;18.40;13.02;;;10.10;99.90;;;;;;5073120;28;20063;-63
2023/01/07 01:49:53;;;;;;;19.25;12.63;;;10.20;99.90;;;;;;5094082;28;20443;-63
2023/01/07 01:52:25;;;;;;;19.88;13.90;;;10.20;99.90;;;;;;5075485;28;20048;-63
2023/01/07 01:54:56;;;;;;;17.17;12.80;;;10.20;99.90;;;;;;5075030;28;20089;-63
2023/01/07 01:57:26;;;;;;;17.48;13.23;;;10.30;99.90;;;;;;5095695;28;20059;-63
2023/01/07 01:59:54;;;;;;;18.67;14.13;;;10.30;99.90;;;;;;5094992;28;20040;-63
2023/01/07 02:02:29;;;;;;;20.08;14.20;;;10.30;99.90;;;;;;5077411;28;20561;-62
2023/01/07 02:04:58;;;;;;;17.50;13.10;;;10.30;99.90;;;;;;5094897;28;20040;-62
2023/01/07 02:07:25;;;;;;;17.58;13.50;;;10.30;99.90;;;;;;5077029;28;20055;-64
2023/01/07 02:10:00;;;;;;;19.98;14.15;;;10.30;99.90;;;;;;5095533;28;20422;-62
2023/01/07 02:12:42;;;;;;;20.70;14.20;;;10.30;99.90;;;;;;5094951;28;20471;-64
2023/01/07 02:15:12;;;;;;;17.25;12.90;;;10.30;99.90;;;;;;5094500;28;20086;-63
2023/01/07 02:17:55;;;;;;;17.60;12.93;;;10.40;99.90;;;;;;5075273;28;20043;-64
2023/01/07 02:21:00;;;;;;;17.27;13.25;;;10.40;99.90;;;;;;5094022;28;20090;-64
2023/01/07 02:24:00;;;;;;;18.98;13.45;;;10.40;99.90;;;;;;5093931;28;20113;-63
2023/01/07 02:26:52;;;;;;;17.30;13.85;;;10.40;99.90;;;;;;5089070;28;20051;-63
2023/01/07 02:30:16;;;;;;;16.67;12.90;;;10.40;99.90;;;;;;5076247;28;20055;-62
2023/01/07 02:33:08;;;;;;;19.38;14.30;;;10.40;99.90;;;;;;5094417;28;20040;-63
2023/01/07 02:35:50;;;;;;;18.40;14.35;;;10.40;99.90;;;;;;5075636;28;20051;-63
2023/01/07 02:38:27;;;;;;;18.85;14.48;;;10.50;99.90;;;;;;5074570;28;20105;-62
2023/01/07 02:41:02;;;;;;;18.63;13.05;;;10.50;99.90;;;;;;5074209;28;20109;-62
2023/01/07 02:43:39;;;;;;;16.33;13.30;;;10.50;99.90;;;;;;5074821;28;20117;-62
2023/01/07 02:46:16;;;;;;;18.20;13.88;;;10.50;99.90;;;;;;5093174;28;20043;-63
2023/01/07 02:48:46;;;;;;;18.10;14.48;;;10.50;99.90;;;;;;5092953;28;20055;-63
2023/01/07 02:51:13;;;;;;;18.25;13.98;;;10.50;99.90;;;;;;5092633;28;20104;-63
2023/01/07 02:53:43;;;;;;;19.58;13.18;;;10.50;99.90;;;;;;5076593;28;20468;-63
2023/01/07 02:56:23;;;;;;;20.10;15.27;;;10.60;99.90;;;;;;5075902;28;20498;-62
2023/01/07 02:59:15;;;;;;;16.88;13.20;;;10.60;99.90;;;;;;5092429;28;20066;-63
2023/01/07 03:02:02;;;;;;;17.10;13.38;;;10.50;99.90;;;;;;5075906;28;20080;-62
2023/01/07 03:04:46;;;;;;;19.23;12.93;;;10.60;99.90;;;;;;5074960;28;20044;-62
2023/01/07 03:07:24;;;;;;;16.02;12.48;;;10.60;99.90;;;;;;5093899;28;20054;-63
2023/01/07 03:09:59;;;;;;;17.48;12.57;;;10.60;99.90;;;;;;5073601;28;20048;-63
2023/01/07 03:12:33;;;;;;;17.45;13.80;;;10.60;99.90;;;;;;5076200;28;20040;-62
2023/01/07 03:15:07;;;;;;;16.13;13.18;;;10.60;99.90;;;;;;5075835;28;20040;-63
2023/01/07 03:17:40;;;;;;;17.58;13.32;;;10.60;99.90;;;;;;5093959;28;20488;-62
2023/01/07 03:20:11;;;;;;;16.15;13.60;;;10.60;99.90;;;;;;5094019;28;20446;-63
2023/01/07 03:22:41;;;;;;;20.45;14.43;;;10.60;99.90;;;;;;5075625;28;20052;-63
2023/01/07 03:25:10;;;;;;;21.98;14.15;;;10.60;99.90;;;;;;5091883;28;20044;-64
2023/01/07 03:27:37;;;;;;;16.90;14.02;;;10.60;99.90;;;;;;5093631;28;20044;-64
2023/01/07 03:30:08;;;;;;;18.05;13.52;;;10.60;99.90;;;;;;5093212;28;20047;-63
2023/01/07 03:32:41;;;;;;;20.00;15.10;;;10.60;99.90;;;;;;5073505;28;20059;-63
2023/01/07 03:35:10;;;;;;;18.92;13.95;;;10.60;99.90;;;;;;5074027;28;20485;-64
2023/01/07 03:37:38;;;;;;;18.73;14.00;;;10.60;99.90;;;;;;5074914;28;20048;-63
2023/01/07 03:40:08;;;;;;;18.05;14.35;;;10.60;99.90;;;;;;5093809;28;20055;-64
2023/01/07 03:42:40;;;;;;;17.48;14.63;;;10.60;99.90;;;;;;5093723;28;20052;-64
2023/01/07 03:45:10;;;;;;;18.42;15.52;;;10.60;99.90;;;;;;5075113;28;20123;-63
2023/01/07 03:47:40;;;;;;;19.07;14.43;;;10.60;99.90;;;;;;5075521;28;20484;-64
2023/01/07 03:50:09;;;;;;;19.90;15.07;;;10.60;99.90;;;;;;5091380;28;20048;-63
2023/01/07 03:52:36;;;;;;;18.55;14.73;;;10.60;99.90;;;;;;5092787;28;20044;-63
2023/01/07 03:55:03;;;;;;;16.42;13.40;;;10.60;99.90;;;;;;5075421;28;20048;-64
2023/01/07 03:57:30;;;;;;;17.35;13.30;;;10.60;99.90;;;;;;5074422;28;20052;-63
2023/01/07 03:59:58;;;;;;;17.08;13.50;;;10.70;99.90;;;;;;5075045;28;20417;-63
2023/01/07 04:02:25;;;;;;;18.13;12.60;;;10.60;99.90;;;;;;5091314;28;20399;-63
2023/01/07 04:04:52;;;;;;;18.02;13.93;;;10.70;99.90;;;;;;5092374;28;20043;-63
2023/01/07 04:07:20;;;;;;;17.65;13.75;;;10.60;99.90;;;;;;5093075;28;20040;-64
2023/01/07 04:09:49;;;;;;;14.65;12.05;;;10.60;99.90;;;;;;5074680;28;20048;-64
2023/01/07 04:12:16;;;;;;;16.00;13.05;;;10.70;99.90;;;;;;5074450;28;20551;-63
2023/01/07 04:14:43;;;;;;;15.55;12.40;;;10.70;99.90;;;;;;5072861;28;20059;-64
2023/01/07 04:17:11;;;;;;;15.48;12.52;;;10.70;99.90;;;;;;5074487;28;20053;-63
2023/01/07 04:19:39;;;;;;;20.15;13.25;;;11.10;99.90;;;;;;5092275;28;20051;-64
2023/01/07 04:22:06;;;;;;;15.90;12.75;;;10.70;99.90;;;;;;5092851;28;20059;-63
2023/01/07 04:24:34;;;;;;;20.27;12.25;;;10.70;99.90;;;;;;5074573;28;20056;-63
2023/01/07 04:27:01;;;;;;;20.02;13.00;;;10.70;99.90;;;;;;5073737;28;20044;-64
2023/01/07 04:29:28;;;;;;;16.98;12.18;;;10.60;99.90;;;;;;5092796;28;20040;-63
2023/01/07 04:31:55;;;;;;;14.75;12.45;;;10.70;99.90;;;;;;5074740;28;20048;-62
2023/01/07 04:34:22;;;;;;;19.20;13.32;;;10.70;99.90;;;;;;5074063;28;20055;-63
2023/01/07 04:36:49;;;;;;;18.15;12.77;;;10.70;99.90;;;;;;5074262;28;20496;-63
2023/01/07 04:39:16;;;;;;;16.80;12.02;;;10.70;99.90;;;;;;5074225;28;20058;-63
2023/01/07 04:41:45;;;;;;;17.05;13.35;;;10.60;99.90;;;;;;5092032;28;20069;-63
2023/01/07 04:44:14;;;;;;;17.70;12.02;;;10.60;99.90;;;;;;5092602;28;20048;-63
2023/01/07 04:46:41;;;;;;;16.15;12.73;;;10.60;99.90;;;;;;5073752;28;20050;-64
2023/01/07 04:49:08;;;;;;;15.93;12.48;;;10.60;99.90;;;;;;5074144;28;20074;-63
2023/01/07 04:51:34;;;;;;;18.27;13.05;;;10.60;99.90;;;;;;5074489;28;20054;-63
2023/01/07 04:54:01;;;;;;;16.25;11.88;;;10.60;99.90;;;;;;5071712;28;20047;-63
2023/01/07 04:56:28;;;;;;;16.00;12.48;;;10.60;99.90;;;;;;5074046;28;20044;-63
2023/01/07 04:58:56;;;;;;;16.90;12.27;;;10.60;99.90;;;;;;5090300;28;20063;-63
2023/01/07 05:01:24;;;;;;;19.77;12.25;;;10.60;99.90;;;;;;5073551;28;20737;-63
2023/01/07 05:03:51;;;;;;;17.15;12.20;;;10.60;99.90;;;;;;5074404;28;20066;-63
2023/01/07 05:06:17;;;;;;;19.98;12.60;;;10.50;99.90;;;;;;5074172;28;20483;-62
2023/01/07 05:08:44;;;;;;;17.77;13.23;;;10.50;99.90;;;;;;5091274;28;20051;-64
2023/01/07 05:11:11;;;;;;;21.15;13.98;;;10.50;99.90;;;;;;5071964;28;20050;-64
2023/01/07 05:13:38;;;;;;;17.08;12.15;;;10.50;99.90;;;;;;5074243;28;20100;-64
2023/01/07 05:16:07;;;;;;;14.65;11.48;;;10.50;99.90;;;;;;5089105;28;20071;-63
2023/01/07 05:18:34;;;;;;;15.60;11.35;;;10.40;99.90;;;;;;5091722;28;20047;-63
2023/01/07 05:21:01;;;;;;;16.05;11.82;;;10.40;99.90;;;;;;5091884;28;20048;-64
2023/01/07 05:23:28;;;;;;;13.70;11.10;;;10.40;99.90;;;;;;5091108;28;20048;-63
2023/01/07 05:25:54;;;;;;;19.00;13.27;;;10.40;99.90;;;;;;5091934;28;20048;-63
2023/01/07 05:28:21;;;;;;;16.42;12.40;;;10.40;99.90;;;;;;5091746;28;20044;-63
2023/01/07 05:30:48;;;;;;;16.63;12.10;;;10.40;99.90;;;;;;5091230;28;20056;-63
2023/01/07 05:33:17;;;;;;;14.40;10.85;;;10.30;99.90;;;;;;5073652;28;20055;-63
2023/01/07 05:35:43;;;;;;;14.05;11.27;;;10.40;99.90;;;;;;5073295;28;20048;-63
2023/01/07 05:38:10;;;;;;;15.48;11.07;;;10.40;99.90;;;;;;5071686;28;20052;-63
2023/01/07 05:40:37;;;;;;;15.00;11.13;;;10.30;99.90;;;;;;5073769;28;20066;-62
2023/01/07 05:43:04;;;;;;;15.35;11.23;;;10.40;99.90;;;;;;5073421;28;20055;-64
2023/01/07 05:45:31;;;;;;;17.30;11.05;;;10.30;99.90;;;;;;5091602;28;20056;-62
2023/01/07 05:47:58;;;;;;;16.10;10.98;;;10.40;99.90;;;;;;5091586;28;20040;-62
2023/01/07 05:50:26;;;;;;;12.68;10.23;;;10.40;99.90;;;;;;5091031;28;20488;-63
2023/01/07 05:52:53;;;;;;;14.52;10.23;;;10.40;99.90;;;;;;5073798;28;20055;-62
2023/01/07 05:55:20;;;;;;;16.80;10.65;;;10.40;99.90;;;;;;5073818;28;20444;-63
2023/01/07 05:57:47;;;;;;;14.05;9.50;;;10.50;99.90;;;;;;5072388;28;20059;-63
2023/01/07 06:00:14;;;;;;;13.85;10.02;;;10.40;99.90;;;;;;5091718;28;20055;-67
2023/01/07 06:02:41;;;;;;;14.23;9.57;;;10.50;99.90;;;;;;5073533;28;20051;-67
2023/01/07 06:05:09;;;;;;;13.77;9.75;;;10.50;99.90;;;;;;5073227;28;20070;-67
2023/01/07 06:07:37;;;;;;;11.18;8.55;;;10.40;99.90;;;;;;5071221;28;20139;-68
2023/01/07 06:10:05;;;;;;;14.82;9.23;;;10.40;99.90;;;;;;5073793;28;20052;-66
2023/01/07 06:12:32;;;;;;;13.98;9.80;;;10.40;99.90;;;;;;5088793;28;20044;-66
2023/01/07 06:14:59;;;;;;;11.43;8.88;;;10.50;99.90;;;;;;5073579;28;20076;-67
2023/01/07 06:17:26;;;;;;;13.32;9.48;;;10.40;99.90;;;;;;5091164;28;20050;-68
2023/01/07 06:19:53;;;;;;;12.95;9.15;;;10.40;99.90;;;;;;5091039;28;20052;-68
2023/01/07 06:22:20;;;;;;;15.95;9.60;;;10.40;99.90;;;;;;5091386;28;20415;-68
2023/01/07 06:24:48;;;;;;;12.40;9.00;;;10.40;99.90;;;;;;5091453;28;20055;-68
2023/01/07 06:27:15;;;;;;;14.05;9.35;;;10.30;99.90;;;;;;5070920;28;20055;-68
2023/01/07 06:29:42;;;;;;;12.75;9.90;;;10.30;99.90;;;;;;5073422;28;20625;-63
2023/01/07 06:32:09;;;;;;;13.45;8.60;;;10.30;99.90;;;;;;5090638;28;20055;-63
2023/01/07 06:34:36;;;;;;;15.07;9.05;;;10.20;99.90;;;;;;5093051;28;20052;-64
2023/01/07 06:37:03;;;;;;;12.95;9.15;;;10.30;99.90;;;;;;5094801;28;20036;-64
2023/01/07 06:39:30;;;;;;;10.95;8.05;;;10.30;99.90;;;;;;5066415;28;20105;-64
2023/01/07 06:41:58;;;;;;;10.80;8.43;;;10.20;99.90;;;;;;5065916;28;20059;-63
2023/01/07 06:44:25;;;;;;;10.15;8.07;;;10.10;99.90;;;;;;5090043;28;20051;-63
2023/01/07 06:46:52;;;;;;;10.98;7.97;;;10.10;99.90;;;;;;5065614;28;20476;-65
2023/01/07 06:49:19;;;;;;;9.55;7.45;;;10.10;99.90;;;;;;5086882;28;20047;-65
2023/01/07 06:51:46;;;;;;;11.65;8.55;;;10.10;99.90;;;;;;5069583;28;20055;-64
2023/01/07 06:54:13;;;;;;;10.55;8.07;;;10.10;99.90;;;;;;5073618;28;20056;-65
2023/01/07 06:56:40;;;;;;;10.65;8.18;;;10.00;99.90;;;;;;5069842;28;20105;-66
2023/01/07 06:59:09;;;;;;;11.60;7.40;;;10.00;99.90;;;;;;5069127;28;20060;-65
2023/01/07 07:01:36;;;;;;;12.90;8.45;;;10.00;99.90;;;;;;5071351;28;20492;-64
2023/01/07 07:04:03;;;;;;;8.75;6.82;;;10.10;99.90;;;;;;5086994;28;20063;-65
2023/01/07 07:06:30;;;;;;;10.60;7.47;;;10.10;99.90;;;;;;5089589;28;20047;-65
2023/01/07 07:08:57;;;;;;;13.13;8.52;;;10.10;99.90;;;;;;5089725;28;20515;-65
2023/01/07 07:11:24;;;;;;;10.98;6.82;;;10.10;99.90;;;;;;5087840;28;20052;-64
2023/01/07 07:13:51;;;;;;;12.10;7.32;;;10.10;99.90;;;;;;5088048;28;20426;-65
2023/01/07 07:16:21;;;;;;;8.75;7.10;;;10.10;99.90;;;;;;5073438;28;20052;-65
2023/01/07 07:18:48;;;;;;;10.32;7.50;;;10.10;99.90;;;;;;5069649;28;20555;-64
2023/01/07 07:21:15;;;;;;;9.35;7.28;;;10.10;99.90;;;;;;5087125;28;20511;-64
2023/01/07 07:23:42;;;;;;;10.45;7.32;;;10.10;99.90;;;;;;5068154;28;20044;-65
2023/01/07 07:26:09;;;;;;;11.35;7.45;;;10.10;99.90;;;;;;5088113;28;20139;-64
2023/01/07 07:28:36;;;;;;;9.80;6.82;;;10.10;99.90;;;;;;5088035;28;20076;-65
2023/01/07 07:31:04;;;;;;;9.88;7.20;;;10.10;99.90;;;;;;5088520;28;20538;-65
2023/01/07 07:33:32;;;;;;;9.60;7.18;;;10.20;99.90;;;;;;5085100;28;20052;-64
2023/01/07 07:35:59;;;;;;;12.77;8.32;;;10.10;99.90;;;;;;5088776;28;20044;-64
2023/01/07 07:38:26;;;;;;;11.57;7.75;;;10.10;99.90;;;;;;5089984;28;20043;-65
2023/01/07 07:40:53;;;;;;;11.10;7.97;;;10.10;99.90;;;;;;5068643;28;20075;-65
2023/01/07 07:43:20;;;;;;;10.73;7.50;;;10.10;99.90;;;;;;5068364;28;20412;-65
2023/01/07 07:45:47;;;;;;;11.10;7.55;;;10.10;99.90;;;;;;5068716;28;20056;-65
2023/01/07 07:48:15;;;;;;;10.80;7.80;;;10.10;99.90;;;;;;5089750;28;20036;-65
2023/01/07 07:50:43;;;;;;;13.15;8.05;;;10.10;99.90;;;;;;5087881;28;20135;-65
2023/01/07 07:53:10;;;;;;;11.43;8.13;;;10.10;99.90;;;;;;5073444;28;20498;-64
2023/01/07 07:55:38;;;;;;;11.98;7.60;;;10.10;99.90;;;;;;5085044;28;20048;-65
2023/01/07 07:58:05;;;;;;;10.68;7.88;;;10.10;99.90;;;;;;5079893;28;20044;-65
2023/01/07 08:00:32;;;;;;;9.35;6.90;;;10.00;99.90;;;;;;5082082;28;20174;-65
2023/01/07 08:03:00;;;;;;;9.15;6.65;;;10.00;99.90;;;;;;5067338;28;20487;-65
2023/01/07 08:05:28;;;;;;;11.20;7.40;;;10.00;99.90;;;;;;5067459;28;20059;-65
2023/01/07 08:07:57;;;;;;;9.55;6.93;;;10.00;99.90;;;;;;5087802;28;20473;-65
2023/01/07 08:10:25;;;;;;;8.65;6.65;;;10.00;99.90;;;;;;5086687;28;20083;-64
2023/01/07 08:12:52;;;;;;;11.40;6.88;;;9.90;99.90;;;;;;5069074;28;20052;-64
2023/01/07 08:15:19;;;;;;;9.73;7.05;;;9.90;99.90;;;;;;5066058;28;20055;-65
2023/01/07 08:17:46;;;;;;;9.18;6.38;;;9.90;99.90;;;;;;5082672;28;20047;-65
2023/01/07 08:20:14;;;;;;;10.48;6.63;;;9.90;99.90;;;;;;5071053;28;20052;-65
2023/01/07 08:22:41;;;;;;;7.68;6.07;;;9.90;99.90;;;;;;5085595;28;20044;-65
2023/01/07 08:25:10;;;;;;;11.60;7.13;;;9.90;99.90;;;;;;5087128;28;20051;-65
2023/01/07 08:27:37;;;;;;;8.55;6.20;;;9.90;99.90;;;;;;5070578;28;20075;-65
2023/01/07 08:30:04;;;;;;;9.38;5.72;;;9.90;99.90;;;;;;5065362;28;20051;-64
2023/01/07 08:32:31;;;;;;;9.85;6.20;;;9.80;99.90;;;;;;5067182;28;20058;-64
2023/01/07 08:34:58;;;;;;;7.68;6.20;;;9.90;99.90;;;;;;5066920;28;20097;-64
2023/01/07 08:37:25;;;;;;;7.95;5.43;;;9.90;99.90;;;;;;5065210;28;20044;-65
2023/01/07 08:39:52;;;;;;;7.50;4.97;;;10.00;99.90;;;;;;5088696;28;20040;-65
2023/01/07 08:42:20;;;;;;;7.15;4.65;;;9.90;99.90;;;;;;5069180;28;20052;-65
2023/01/07 08:44:47;;;;;;;7.97;5.05;;;9.90;99.90;;;;;;5086205;28;20052;-64
2023/01/07 08:47:14;;;;;;;9.18;5.82;;;10.00;99.90;;;;;;5066475;28;20047;-65
2023/01/07 08:49:41;;;;;;;7.70;4.78;;;10.10;99.90;;;;;;5082007;28;20098;-65
2023/01/07 08:52:08;;;;;;;5.65;4.72;;;10.10;99.90;;;;;;5084359;28;20045;-65
2023/01/07 08:54:35;;;;;;;7.40;4.65;;;10.10;99.90;;;;;;5072273;28;20499;-64
2023/01/07 08:57:02;;;;;;;6.22;4.22;;;10.20;99.90;;;;;;5068164;28;20059;-65
2023/01/07 08:59:30;;;;;;;5.55;4.65;;;10.30;99.90;;;;;;5067048;28;20054;-64
2023/01/07 09:01:57;;;;;;;5.65;4.22;;;10.50;99.90;;;;;;5083393;28;20055;-64
2023/01/07 09:04:24;;;;;;;6.63;4.10;;;10.50;99.90;;;;;;5087395;28;20059;-65
2023/01/07 09:06:51;;;;;;;5.68;4.53;;;10.60;99.90;;;;;;5085993;28;20416;-65
2023/01/07 09:09:18;;;;;;;5.22;3.80;;;10.70;99.90;;;;;;5069011;28;20048;-64
2023/01/07 09:11:45;;;;;;;8.13;4.22;;;10.80;99.90;;;;;;5068467;28;20408;-65
2023/01/07 09:14:11;;;;;;;6.63;3.65;;;10.80;99.90;;;;;;5085494;28;20051;-65
2023/01/07 09:16:40;;;;;;;6.03;4.10;;;10.80;99.90;;;;;;5084086;28;20492;-64
2023/01/07 09:19:07;;;;;;;7.35;3.67;;;10.80;99.90;;;;;;5065817;28;20139;-65
2023/01/07 09:21:33;;;;;;;9.63;3.90;;;10.80;99.90;;;;;;5068920;28;20488;-66
2023/01/07 09:24:00;;;;;;;7.10;4.15;;;10.90;99.90;;;;;;5066437;28;20060;-65
2023/01/07 09:26:27;;;;;;;6.90;3.58;;;11.00;99.90;;;;;;5071039;28;20052;-64
2023/01/07 09:28:54;;;;;;;4.60;3.53;;;11.20;99.90;;;;;;5090058;28;20052;-64
2023/01/07 09:31:21;;;;;;;6.32;4.25;;;11.40;99.90;;;;;;5089800;28;20055;-64
2023/01/07 09:33:50;;;;;;;4.43;3.50;;;11.60;99.90;;;;;;5091696;28;20132;-64
2023/01/07 09:36:17;;;;;;;6.18;4.07;;;11.60;99.90;;;;;;5089213;28;20066;-64
2023/01/07 09:38:44;;;;;;;5.65;3.33;;;11.70;99.90;;;;;;5073318;28;20055;-65
2023/01/07 09:41:24;;;;;;;5.15;3.60;;;11.80;99.90;;;;;;5091813;28;20079;-64
2023/01/07 09:43:54;;;;;;;8.50;3.20;;;11.80;99.90;;;;;;5072242;28;20056;-64
2023/01/07 09:46:22;;;;;;;5.15;3.30;;;12.00;99.90;;;;;;5074057;28;20055;-64
2023/01/07 09:48:55;;;;;;;5.32;3.13;;;12.10;99.90;;;;;;5073198;28;20052;-65
2023/01/07 09:51:27;;;;;;;5.65;3.63;;;12.30;99.90;;;;;;5072701;28;20055;-65
2023/01/07 09:53:57;;;;;;;4.72;3.70;;;12.30;99.90;;;;;;5073347;28;20060;-65
2023/01/07 09:56:27;;;;;;;5.25;2.95;;;12.50;99.90;;;;;;5073330;28;20051;-65
2023/01/07 09:58:56;;;;;;;4.60;3.13;;;12.60;99.90;;;;;;5071816;28;20059;-65
2023/01/07 10:01:31;;;;;;;5.88;2.80;;;12.70;99.90;;;;;;5091553;28;20052;-65
2023/01/07 10:04:18;;;;;;;4.40;2.72;;;12.70;99.90;;;;;;5091006;28;20052;-64
2023/01/07 10:06:57;;;;;;;5.85;3.35;;;12.40;99.90;;;;;;5091208;28;20062;-64
2023/01/07 10:09:35;;;;;;;7.63;3.00;;;12.40;99.90;;;;;;5076930;28;20484;-64
2023/01/07 10:12:12;;;;;;;5.35;2.95;;;12.20;99.90;;;;;;5093178;28;20051;-64
2023/01/07 10:14:58;;;;;;;3.90;2.80;;;12.10;99.90;;;;;;5093909;28;20048;-64
2023/01/07 10:17:34;;;;;;;5.13;2.78;;;12.00;99.90;;;;;;5092664;28;20101;-64
2023/01/07 10:20:09;;;;;;;4.90;2.67;;;12.00;99.90;;;;;;5092659;28;20091;-64
2023/01/07 10:22:39;;;;;;;3.70;2.47;;;12.20;99.90;;;;;;5075009;28;20113;-65
2023/01/07 10:25:16;;;;;;;5.05;2.95;;;12.80;99.90;;;;;;5076390;28;20065;-65
2023/01/07 10:27:45;;;;;;;3.60;2.38;;;13.40;99.90;;;;;;5077152;28;20084;-65
2023/01/07 10:30:18;;;;;;;5.20;2.45;;;13.50;99.90;;;;;;5095095;28;20123;-65
2023/01/07 10:32:48;;;;;;;4.72;2.72;;;13.40;99.90;;;;;;5074999;28;20139;-65
2023/01/07 10:35:19;;;;;;;2.83;2.30;;;13.40;99.90;;;;;;5075209;28;20047;-65
2023/01/07 10:37:46;;;;;;;4.85;2.53;;;13.20;99.90;;;;;;5094867;28;20396;-65
2023/01/07 10:40:30;;;;;;;4.13;2.50;;;12.80;99.90;;;;;;5069343;28;20109;-64
2023/01/07 10:43:02;;;;;;;4.05;2.55;;;12.50;99.90;;;;;;5083328;28;20067;-64
2023/01/07 10:45:47;;;;;;;5.85;2.53;;;12.20;99.90;;;;;;5070351;28;20056;-65
2023/01/07 10:48:37;;;;;;;4.90;2.53;;;11.80;99.90;;;;;;5067637;28;20392;-63
2023/01/07 10:51:15;;;;;;;4.28;2.40;;;11.60;99.90;;;;;;5067326;28;20055;-65
2023/01/07 10:53:58;;;;;;;3.97;2.55;;;11.50;99.90;;;;;;5068784;28;20055;-64
2023/01/07 10:56:29;;;;;;;5.68;2.42;;;11.40;99.90;;;;;;5090015;28;20044;-65
2023/01/07 10:58:57;;;;;;;4.63;2.35;;;11.50;99.90;;;;;;5089399;28;20044;-64
2023/01/07 11:01:27;;;;;;;3.53;1.95;;;11.50;99.90;;;;;;5069462;28;20052;-64
2023/01/07 11:03:55;;;;;;;5.28;2.38;;;11.40;99.90;;;;;;5071077;28;20059;-64
2023/01/07 11:06:34;;;;;;;3.08;1.90;;;11.50;99.90;;;;;;5069376;28;20052;-65
2023/01/07 11:09:04;;;;;;;4.75;2.47;;;11.50;99.90;;;;;;5090967;28;20479;-64
2023/01/07 11:11:33;;;;;;;;;;;11.40;99.90;;;;;;5084431;28;20048;-64
2023/01/07 11:14:04;;;;;;;4.85;1.90;;;11.40;99.90;;;;;;5091317;28;19924;-63
2023/01/07 11:16:35;;;;;;;4.38;2.00;;;11.40;99.90;;;;;;5086528;28;20041;-63
2023/01/07 11:19:05;;;;;;;4.28;2.20;;;11.50;99.90;;;;;;5087530;28;20048;-64
2023/01/07 11:21:37;;;;;;;2.78;2.00;;;11.60;99.90;;;;;;5085400;28;20499;-64
2023/01/07 11:24:29;;;;;;;3.60;2.03;;;11.80;99.90;;;;;;5067905;28;20051;-64
2023/01/07 11:27:00;;;;;;;3.50;2.22;;;11.80;99.90;;;;;;5086509;28;20048;-64
2023/01/07 11:29:32;;;;;;;4.13;2.85;;;11.80;99.90;;;;;;5088879;28;20119;-63
2023/01/07 11:32:01;;;;;;;5.43;2.65;;;11.90;99.90;;;;;;5068853;28;20457;-64
2023/01/07 11:34:33;;;;;;;3.58;2.55;;;11.90;99.90;;;;;;5091508;28;20079;-64
2023/01/07 11:37:02;;;;;;;4.35;2.05;;;12.10;99.90;;;;;;5067598;28;20071;-63
2023/01/07 11:39:31;;;;;;;4.38;2.72;;;12.20;99.90;;;;;;5067006;28;20059;-64
2023/01/07 11:42:37;;;;;;;4.22;2.40;;;12.10;99.90;;;;;;5087535;28;20094;-64
2023/01/07 11:44:47;;;;;;;3.70;2.10;;;12.20;99.90;;;;;;5067469;28;20495;-65
2023/01/07 11:47:15;;;;;;;3.35;1.90;;;12.20;99.90;;;;;;5088361;28;20458;-65
2023/01/07 11:49:45;;;;;;;5.28;3.17;;;12.20;99.90;;;;;;5088087;28;20040;-64
2023/01/07 11:52:20;;;;;;;3.47;1.70;;;12.20;99.90;;;;;;5089021;28;20047;-75
2023/01/07 11:54:51;;;;;;;3.30;2.10;;;12.30;99.90;;;;;;5084377;28;20048;-64
2023/01/07 11:57:22;;;;;;;3.65;2.30;;;12.30;99.90;;;;;;5086009;28;20960;-65
2023/01/07 12:00:11;;;;;;;2.75;1.80;;;12.30;99.90;;;;;;5090393;28;20059;-63
2023/01/07 12:02:38;;;;;;;3.83;2.20;;;12.20;99.90;;;;;;5088310;28;20048;-64
2023/01/07 12:05:21;;;;;;;2.65;1.70;;;12.20;99.90;;;;;;5086449;28;20048;-64
2023/01/07 12:07:50;;;;;;;2.33;1.63;;;12.00;99.90;;;;;;5067766;28;20055;-63
2023/01/07 12:10:39;;;;;;;2.78;1.55;;;11.90;99.90;;;;;;5073278;28;20052;-64
2023/01/07 12:13:16;;;;;;;4.40;1.88;;;11.80;99.90;;;;;;5065805;28;20044;-64
2023/01/07 12:15:50;;;;;;;2.92;1.98;;;11.70;99.90;;;;;;5087100;28;20040;-64
2023/01/07 12:18:50;;;;;;;4.15;2.53;;;11.70;99.90;;;;;;5067084;28;20055;-64
2023/01/07 12:21:43;;;;;;;4.70;1.93;;;11.70;99.90;;;;;;5031740;28;20102;-64
2023/01/07 12:24:43;;;;;;;2.58;1.58;;;11.70;99.90;;;;;;5064921;28;20045;-64
2023/01/07 12:27:25;;;;;;;3.35;2.00;;;11.80;99.90;;;;;;5082012;28;20041;-64
2023/01/07 12:30:04;;;;;;;3.47;2.00;;;12.50;99.90;;;;;;5088877;28;20044;-64
2023/01/07 12:32:44;;;;;;;4.75;1.90;;;13.10;99.90;;;;;;5064692;28;20055;-64
2023/01/07 12:35:17;;;;;;;2.38;1.63;;;13.80;99.90;;;;;;5082795;28;20040;-64
2023/01/07 12:37:51;;;;;;;2.70;1.80;;;14.70;99.90;;;;;;5069516;28;20475;-64
2023/01/07 12:40:30;;;;;;;3.97;1.88;;;15.10;99.90;;;;;;5089623;28;20040;-65
2023/01/07 12:43:03;;;;;;;2.55;1.50;;;14.90;99.90;;;;;;5083489;28;20052;-63
2023/01/07 12:45:36;;;;;;;3.05;1.50;;;14.90;99.90;;;;;;5083451;28;20066;-63
2023/01/07 12:48:07;;;;;;;2.90;1.95;;;15.00;99.90;;;;;;5067469;28;20097;-62
2023/01/07 12:50:39;;;;;;;2.90;1.40;;;14.80;99.90;;;;;;5063011;28;20090;-62
2023/01/07 12:53:14;;;;;;;1.80;1.30;;;14.90;99.90;;;;;;5073019;28;20048;-63
2023/01/07 12:55:45;;;;;;;2.63;1.55;;;14.90;99.90;;;;;;5086023;28;20055;-63